sensor_id;sensor_type;location;lat;lon;timestamp;pressure;altitude;pressure_sealevel;temperature;humidity
48089;BME280;33867;50.314;7.802;2023-04-01T00:01:54;98522.06;;;9.51;nan
48089;BME280;33867;50.314;7.802;2023-04-01T00:05:15;98527.81;;;9.48;nan
48089;BME280;33867;50.314;7.802;2023-04-01T00:08:37;98526.47;;;9.44;nan
48089;BME280;33867;50.314;7.802;2023-04-01T00:11:56;98524.44;;;9.46;nan
48089;BME280;33867;50.314;7.802;2023-04-01T00:15:26;98538.88;;;9.45;nan
48089;BME280;33867;50.314;7.802;2023-04-01T00:18:45;98519.81;;;9.40;nan
48089;BME280;33867;50.314;7.802;2023-04-01T00:22:11;98525.66;;;9.44;nan
48089;BME280;33867;50.314;7.802;2023-04-01T00:25:41;98529.53;;;9.41;nan
48089;BME280;33867;50.314;7.802;2023-04-01T00:29:21;98544.63;;;9.42;nan
48089;BME280;33867;50.314;7.802;2023-04-01T00:32:40;98542.41;;;9.46;nan
48089;BME280;33867;50.314;7.802;2023-04-01T00:36:20;98528.16;;;9.45;nan
48089;BME280;33867;50.314;7.802;2023-04-01T00:40:00;98542.59;;;9.44;nan
48089;BME280;33867;50.314;7.802;2023-04-01T00:43:26;98536.38;;;9.44;nan
48089;BME280;33867;50.314;7.802;2023-04-01T00:51:46;98538.06;;;9.45;nan
48089;BME280;33867;50.314;7.802;2023-04-01T00:55:29;98528.16;;;9.45;nan
48089;BME280;33867;50.314;7.802;2023-04-01T00:58:54;98527.72;;;9.56;nan
48089;BME280;33867;50.314;7.802;2023-04-01T01:02:15;98532.75;;;9.59;nan
48089;BME280;33867;50.314;7.802;2023-04-01T01:06:23;98534.09;;;9.55;nan
48089;BME280;33867;50.314;7.802;2023-04-01T01:09:56;98539.38;;;9.49;nan
48089;BME280;33867;50.314;7.802;2023-04-01T01:29:48;98532.81;;;9.51;nan
48089;BME280;33867;50.314;7.802;2023-04-01T01:37:15;98518.34;;;9.52;nan
48089;BME280;33867;50.314;7.802;2023-04-01T01:40:52;98520.41;;;9.50;nan
48089;BME280;33867;50.314;7.802;2023-04-01T01:44:14;98531.03;;;9.58;nan
48089;BME280;33867;50.314;7.802;2023-04-01T01:47:35;98525.75;;;9.50;nan
48089;BME280;33867;50.314;7.802;2023-04-01T01:50:58;98512.72;;;9.47;nan
48089;BME280;33867;50.314;7.802;2023-04-01T01:54:18;98518.06;;;9.47;nan
48089;BME280;33867;50.314;7.802;2023-04-01T01:57:41;98529.94;;;9.53;nan
48089;BME280;33867;50.314;7.802;2023-04-01T02:01:15;98524.09;;;9.49;nan
48089;BME280;33867;50.314;7.802;2023-04-01T02:04:39;98522.91;;;9.52;nan
48089;BME280;33867;50.314;7.802;2023-04-01T02:08:07;98515.28;;;9.55;nan
48089;BME280;33867;50.314;7.802;2023-04-01T02:11:41;98512.34;;;9.50;nan
48089;BME280;33867;50.314;7.802;2023-04-01T02:15:07;98510.47;;;9.51;nan
48089;BME280;33867;50.314;7.802;2023-04-01T02:18:29;98518.34;;;9.52;nan
48089;BME280;33867;50.314;7.802;2023-04-01T02:21:56;98518.34;;;9.52;nan
48089;BME280;33867;50.314;7.802;2023-04-01T02:25:20;98530.31;;;9.50;nan
48089;BME280;33867;50.314;7.802;2023-04-01T02:28:42;98515.38;;;9.47;nan
48089;BME280;33867;50.314;7.802;2023-04-01T02:32:05;98524.19;;;9.56;nan
48089;BME280;33867;50.314;7.802;2023-04-01T02:35:26;98517.06;;;9.48;nan
48089;BME280;33867;50.314;7.802;2023-04-01T02:38:50;98526.41;;;9.52;nan
48089;BME280;33867;50.314;7.802;2023-04-01T02:42:13;98523.81;;;9.59;nan
48089;BME280;33867;50.314;7.802;2023-04-01T02:45:33;98530.53;;;9.63;nan
48089;BME280;33867;50.314;7.802;2023-04-01T02:48:52;98523.34;;;9.55;nan
48089;BME280;33867;50.314;7.802;2023-04-01T02:52:12;98529.09;;;9.52;nan
48089;BME280;33867;50.314;7.802;2023-04-01T02:55:31;98522.06;;;9.51;nan
48089;BME280;33867;50.314;7.802;2023-04-01T02:58:50;98522.78;;;9.45;nan
48089;BME280;33867;50.314;7.802;2023-04-01T03:02:09;98516.69;;;9.51;nan
48089;BME280;33867;50.314;7.802;2023-04-01T03:05:29;98520.47;;;9.42;nan
48089;BME280;33867;50.314;7.802;2023-04-01T03:08:48;98508.31;;;9.46;nan
48089;BME280;33867;50.314;7.802;2023-04-01T03:12:15;98515.25;;;9.41;nan
48089;BME280;33867;50.314;7.802;2023-04-01T03:15:42;98519.63;;;9.42;nan
48089;BME280;33867;50.314;7.802;2023-04-01T03:19:01;98513.88;;;9.45;nan
48089;BME280;33867;50.314;7.802;2023-04-01T03:22:21;98506.41;;;9.55;nan
48089;BME280;33867;50.314;7.802;2023-04-01T03:25:40;98501.97;;;9.47;nan
48089;BME280;33867;50.314;7.802;2023-04-01T03:28:59;98511.56;;;9.42;nan
48089;BME280;33867;50.314;7.802;2023-04-01T03:32:18;98507.66;;;9.44;nan
48089;BME280;33867;50.314;7.802;2023-04-01T03:35:37;98511.56;;;9.42;nan
48089;BME280;33867;50.314;7.802;2023-04-01T03:38:56;98512.16;;;9.52;nan
48089;BME280;33867;50.314;7.802;2023-04-01T03:42:25;98506.31;;;9.48;nan
48089;BME280;33867;50.314;7.802;2023-04-01T03:45:57;98497.66;;;9.38;nan
48089;BME280;33867;50.314;7.802;2023-04-01T03:49:18;98514.44;;;9.40;nan
48089;BME280;33867;50.314;7.802;2023-04-01T03:52:47;98492.47;;;9.36;nan
48089;BME280;33867;50.314;7.802;2023-04-01T03:56:09;98507.03;;;9.42;nan
48089;BME280;33867;50.314;7.802;2023-04-01T03:59:28;98508.03;;;9.41;nan
48089;BME280;33867;50.314;7.802;2023-04-01T04:03:11;98505.94;;;9.51;nan
48089;BME280;33867;50.314;7.802;2023-04-01T04:06:41;98521.75;;;9.46;nan
48089;BME280;33867;50.314;7.802;2023-04-01T04:10:03;98515.72;;;9.44;nan
48089;BME280;33867;50.314;7.802;2023-04-01T04:13:22;98511.09;;;9.38;nan
48089;BME280;33867;50.314;7.802;2023-04-01T04:16:48;98511.75;;;9.40;nan
48089;BME280;33867;50.314;7.802;2023-04-01T04:20:08;98501.19;;;9.38;nan
48089;BME280;33867;50.314;7.802;2023-04-01T04:23:27;98504.06;;;9.37;nan
48089;BME280;33867;50.314;7.802;2023-04-01T04:26:48;98522.88;;;9.37;nan
48089;BME280;33867;50.314;7.802;2023-04-01T04:30:08;98514.44;;;9.40;nan
48089;BME280;33867;50.314;7.802;2023-04-01T04:33:46;98513.03;;;9.44;nan
48089;BME280;33867;50.314;7.802;2023-04-01T04:37:29;98512.31;;;9.35;nan
48089;BME280;33867;50.314;7.802;2023-04-01T04:41:11;98509.78;;;9.34;nan
48089;BME280;33867;50.314;7.802;2023-04-01T04:44:41;98502.66;;;9.41;nan
48089;BME280;33867;50.314;7.802;2023-04-01T04:48:00;98506.44;;;9.32;nan
48089;BME280;33867;50.314;7.802;2023-04-01T04:51:20;98518.31;;;9.37;nan
48089;BME280;33867;50.314;7.802;2023-04-01T04:54:40;98521.19;;;9.36;nan
48089;BME280;33867;50.314;7.802;2023-04-01T04:58:00;98517.59;;;9.44;nan
48089;BME280;33867;50.314;7.802;2023-04-01T05:01:18;98510.03;;;9.47;nan
48089;BME280;33867;50.314;7.802;2023-04-01T05:04:40;98515.81;;;9.36;nan
48089;BME280;33867;50.314;7.802;2023-04-01T05:08:23;98506.94;;;9.35;nan
48089;BME280;33867;50.314;7.802;2023-04-01T05:12:26;98528.06;;;9.38;nan
48089;BME280;33867;50.314;7.802;2023-04-01T05:16:23;98517.69;;;9.35;nan
48089;BME280;33867;50.314;7.802;2023-04-01T05:19:48;98517.19;;;9.32;nan
48089;BME280;33867;50.314;7.802;2023-04-01T05:27:22;98521.47;;;9.41;nan
48089;BME280;33867;50.314;7.802;2023-04-01T05:30:42;98499.97;;;9.41;nan
48089;BME280;33867;50.314;7.802;2023-04-01T05:34:14;98517.97;;;9.41;nan
48089;BME280;33867;50.314;7.802;2023-04-01T05:37:34;98510.03;;;9.47;nan
48089;BME280;33867;50.314;7.802;2023-04-01T05:40:59;98510.34;;;9.44;nan
48089;BME280;33867;50.314;7.802;2023-04-01T05:44:25;98515.66;;;9.52;nan
48089;BME280;33867;50.314;7.802;2023-04-01T05:48:00;98522.66;;;9.61;nan
48089;BME280;33867;50.314;7.802;2023-04-01T05:51:23;98500.75;;;9.50;nan
48089;BME280;33867;50.314;7.802;2023-04-01T05:54:42;98510.34;;;9.44;nan
48089;BME280;33867;50.314;7.802;2023-04-01T05:58:02;98516.50;;;9.53;nan
48089;BME280;33867;50.314;7.802;2023-04-01T06:01:22;98511.31;;;9.51;nan
48089;BME280;33867;50.314;7.802;2023-04-01T06:04:41;98525.03;;;9.56;nan
48089;BME280;33867;50.314;7.802;2023-04-01T06:08:08;98514.28;;;9.56;nan
48089;BME280;33867;50.314;7.802;2023-04-01T06:12:04;98520.97;;;9.60;nan
48089;BME280;33867;50.314;7.802;2023-04-01T06:27:07;98529.25;;;9.88;nan
48089;BME280;33867;50.314;7.802;2023-04-01T06:34:42;98535.09;;;9.92;nan
48089;BME280;33867;50.314;7.802;2023-04-01T06:45:56;98546.28;;;9.81;nan
48089;BME280;33867;50.314;7.802;2023-04-01T07:08:25;98538.53;;;10.01;nan
48089;BME280;33867;50.314;7.802;2023-04-01T07:19:42;98545.78;;;10.00;nan
48089;BME280;33867;50.314;7.802;2023-04-01T07:23:16;98554.56;;;9.94;nan
48089;BME280;33867;50.314;7.802;2023-04-01T07:26:59;98553.38;;;9.96;nan
48089;BME280;33867;50.314;7.802;2023-04-01T07:30:24;98554.22;;;9.97;nan
48089;BME280;33867;50.314;7.802;2023-04-01T07:41:30;98575.72;;;9.97;nan
48089;BME280;33867;50.314;7.802;2023-04-01T07:44:54;98565.16;;;9.95;nan
48089;BME280;33867;50.314;7.802;2023-04-01T07:48:35;98582.75;;;9.98;nan
48089;BME280;33867;50.314;7.802;2023-04-01T07:59:16;98578.88;;;10.01;nan
48089;BME280;33867;50.314;7.802;2023-04-01T08:10:23;98587.50;;;10.11;nan
48089;BME280;33867;50.314;7.802;2023-04-01T08:18:36;98589.50;;;10.32;nan
48089;BME280;33867;50.314;7.802;2023-04-01T08:22:03;98593.75;;;10.41;nan
48089;BME280;33867;50.314;7.802;2023-04-01T08:25:28;98601.47;;;10.44;nan
48089;BME280;33867;50.314;7.802;2023-04-01T08:29:01;98603.59;;;10.34;nan
48089;BME280;33867;50.314;7.802;2023-04-01T08:32:28;98606.66;;;10.45;nan
48089;BME280;33867;50.314;7.802;2023-04-01T08:51:37;98602.25;;;10.89;nan
48089;BME280;33867;50.314;7.802;2023-04-01T09:02:49;98612.28;;;10.95;nan
48089;BME280;33867;50.314;7.802;2023-04-01T09:06:22;98609.34;;;11.11;nan
48089;BME280;33867;50.314;7.802;2023-04-01T09:13:47;98607.97;;;11.15;nan
48089;BME280;33867;50.314;7.802;2023-04-01T09:38:23;98630.63;;;11.42;nan
48089;BME280;33867;50.314;7.802;2023-04-01T09:51:45;98628.81;;;11.85;nan
48089;BME280;33867;50.314;7.802;2023-04-01T10:12:17;98639.06;;;12.52;nan
48089;BME280;33867;50.314;7.802;2023-04-01T10:16:35;98645.69;;;12.50;nan
48089;BME280;33867;50.314;7.802;2023-04-01T10:39:56;98667.69;;;12.19;nan
48089;BME280;33867;50.314;7.802;2023-04-01T10:44:17;98665.38;;;12.16;nan
48089;BME280;33867;50.314;7.802;2023-04-01T10:48:07;98672.22;;;11.90;nan
48089;BME280;33867;50.314;7.802;2023-04-01T10:59:27;98670.66;;;12.03;nan
48089;BME280;33867;50.314;7.802;2023-04-01T11:18:49;98682.06;;;12.26;nan
48089;BME280;33867;50.314;7.802;2023-04-01T11:30:14;98671.88;;;12.84;nan
48089;BME280;33867;50.314;7.802;2023-04-01T11:43:08;98695.31;;;12.77;nan
48089;BME280;33867;50.314;7.802;2023-04-01T11:47:07;98691.91;;;12.96;nan
48089;BME280;33867;50.314;7.802;2023-04-01T11:50:42;98691.97;;;12.75;nan
48089;BME280;33867;50.314;7.802;2023-04-01T11:54:32;98696.59;;;12.81;nan
48089;BME280;33867;50.314;7.802;2023-04-01T11:58:21;98705.13;;;12.84;nan
48089;BME280;33867;50.314;7.802;2023-04-01T12:02:07;98697.94;;;12.98;nan
48089;BME280;33867;50.314;7.802;2023-04-01T12:05:42;98695.00;;;12.93;nan
48089;BME280;33867;50.314;7.802;2023-04-01T12:16:46;98712.69;;;13.30;nan
48089;BME280;33867;50.314;7.802;2023-04-01T12:28:03;98720.34;;;13.81;nan
48089;BME280;33867;50.314;7.802;2023-04-01T12:31:39;98736.91;;;13.58;nan
48089;BME280;33867;50.314;7.802;2023-04-01T12:39:05;98736.97;;;13.85;nan
48089;BME280;33867;50.314;7.802;2023-04-01T12:42:55;98736.03;;;14.12;nan
48089;BME280;33867;50.314;7.802;2023-04-01T12:54:11;98743.16;;;14.59;nan
48089;BME280;33867;50.314;7.802;2023-04-01T13:08:26;98751.91;;;14.61;nan
48089;BME280;33867;50.314;7.802;2023-04-01T13:15:52;98762.75;;;14.48;nan
48089;BME280;33867;50.314;7.802;2023-04-01T13:19:31;98764.78;;;14.26;nan
48089;BME280;33867;50.314;7.802;2023-04-01T13:30:39;98767.06;;;14.29;nan
48089;BME280;33867;50.314;7.802;2023-04-01T13:34:32;98768.94;;;14.36;nan
48089;BME280;33867;50.314;7.802;2023-04-01T13:38:17;98779.63;;;14.50;nan
48089;BME280;33867;50.314;7.802;2023-04-01T13:45:13;98779.75;;;14.29;nan
48089;BME280;33867;50.314;7.802;2023-04-01T14:03:27;98782.88;;;15.25;nan
48089;BME280;33867;50.314;7.802;2023-04-01T14:10:39;98775.34;;;15.27;nan
48089;BME280;33867;50.314;7.802;2023-04-01T14:33:23;98789.78;;;15.28;nan
48089;BME280;33867;50.314;7.802;2023-04-01T14:51:34;98802.75;;;14.99;nan
48089;BME280;33867;50.314;7.802;2023-04-01T14:55:33;98815.66;;;14.51;nan
48089;BME280;33867;50.314;7.802;2023-04-01T14:59:10;98810.47;;;14.89;nan
48089;BME280;33867;50.314;7.802;2023-04-01T15:10:01;98809.06;;;16.85;nan
48089;BME280;33867;50.314;7.802;2023-04-01T15:17:04;98816.09;;;15.85;nan
48089;BME280;33867;50.314;7.802;2023-04-01T15:20:44;98813.72;;;15.44;nan
48089;BME280;33867;50.314;7.802;2023-04-01T15:24:14;98824.22;;;15.01;nan
48089;BME280;33867;50.314;7.802;2023-04-01T15:38:36;98849.56;;;14.40;nan
48089;BME280;33867;50.314;7.802;2023-04-01T15:42:19;98853.69;;;14.29;nan
48089;BME280;33867;50.314;7.802;2023-04-01T15:45:51;98853.81;;;14.08;nan
48089;BME280;33867;50.314;7.802;2023-04-01T15:52:43;98871.81;;;13.81;nan
48089;BME280;33867;50.314;7.802;2023-04-01T15:56:44;98876.75;;;13.71;nan
48089;BME280;33867;50.314;7.802;2023-04-01T16:00:22;98878.34;;;13.52;nan
48089;BME280;33867;50.314;7.802;2023-04-01T16:04:19;98884.56;;;13.25;nan
48089;BME280;33867;50.314;7.802;2023-04-01T16:07:56;98886.44;;;13.24;nan
48089;BME280;33867;50.314;7.802;2023-04-01T16:11:39;98897.19;;;13.17;nan
48089;BME280;33867;50.314;7.802;2023-04-01T16:15:18;98895.53;;;13.16;nan
48089;BME280;33867;50.314;7.802;2023-04-01T16:22:41;98903.88;;;13.00;nan
48089;BME280;33867;50.314;7.802;2023-04-01T16:26:26;98905.13;;;12.98;nan
48089;BME280;33867;50.314;7.802;2023-04-01T16:29:53;98904.28;;;12.76;nan
48089;BME280;33867;50.314;7.802;2023-04-01T16:37:29;98921.19;;;12.63;nan
48089;BME280;33867;50.314;7.802;2023-04-01T16:41:07;98922.88;;;12.64;nan
48089;BME280;33867;50.314;7.802;2023-04-01T16:44:29;98927.31;;;12.50;nan
48089;BME280;33867;50.314;7.802;2023-04-01T16:47:53;98925.47;;;12.36;nan
48089;BME280;33867;50.314;7.802;2023-04-01T16:51:15;98931.81;;;12.28;nan
48089;BME280;33867;50.314;7.802;2023-04-01T16:54:42;98932.22;;;12.11;nan
48089;BME280;33867;50.314;7.802;2023-04-01T16:58:05;98939.88;;;11.92;nan
48089;BME280;33867;50.314;7.802;2023-04-01T17:02:08;98951.88;;;11.90;nan
48089;BME280;33867;50.314;7.802;2023-04-01T17:16:52;98975.03;;;11.84;nan
48089;BME280;33867;50.314;7.802;2023-04-01T17:35:22;98997.16;;;11.42;nan
48089;BME280;33867;50.314;7.802;2023-04-01T17:51:53;99026.63;;;10.98;nan
48089;BME280;33867;50.314;7.802;2023-04-01T18:27:00;99075.56;;;10.78;nan
48089;BME280;33867;50.314;7.802;2023-04-01T18:49:33;99129.91;;;10.27;nan
48089;BME280;33867;50.314;7.802;2023-04-01T18:58:30;99137.94;;;10.43;nan
48089;BME280;33867;50.314;7.802;2023-04-01T20:28:30;99267.75;;;9.96;nan
